sensor_id;sensor_type;location;lat;lon;timestamp;temperature;humidity
41939;DHT22;23057;48.554;14.454;2022-09-09T00:02:02;9.60;99.90
41939;DHT22;23057;48.554;14.454;2022-09-09T00:04:58;9.60;99.90
41939;DHT22;23057;48.554;14.454;2022-09-09T00:07:50;9.50;99.90
41939;DHT22;23057;48.554;14.454;2022-09-09T00:10:39;9.30;99.90
41939;DHT22;23057;48.554;14.454;2022-09-09T00:16:15;9.40;99.90
41939;DHT22;23057;48.554;14.454;2022-09-09T00:19:01;9.50;99.90
41939;DHT22;23057;48.554;14.454;2022-09-09T00:21:51;9.70;99.90
41939;DHT22;23057;48.554;14.454;2022-09-09T00:24:41;9.70;99.90
41939;DHT22;23057;48.554;14.454;2022-09-09T00:27:19;9.60;99.90
41939;DHT22;23057;48.554;14.454;2022-09-09T00:30:13;9.60;99.90
41939;DHT22;23057;48.554;14.454;2022-09-09T00:33:10;9.60;99.90
41939;DHT22;23057;48.554;14.454;2022-09-09T00:35:47;9.70;99.90
41939;DHT22;23057;48.554;14.454;2022-09-09T00:38:34;9.70;99.90
41939;DHT22;23057;48.554;14.454;2022-09-09T00:50:15;9.50;99.90
41939;DHT22;23057;48.554;14.454;2022-09-09T00:52:59;9.40;99.90
41939;DHT22;23057;48.554;14.454;2022-09-09T00:58:36;9.40;99.90
41939;DHT22;23057;48.554;14.454;2022-09-09T01:01:11;9.40;99.90
41939;DHT22;23057;48.554;14.454;2022-09-09T01:03:48;9.40;99.90
41939;DHT22;23057;48.554;14.454;2022-09-09T01:06:30;9.30;99.90
41939;DHT22;23057;48.554;14.454;2022-09-09T01:14:48;8.90;99.90
41939;DHT22;23057;48.554;14.454;2022-09-09T01:17:27;8.90;99.90
41939;DHT22;23057;48.554;14.454;2022-09-09T01:28:50;8.90;99.90
41939;DHT22;23057;48.554;14.454;2022-09-09T01:34:12;8.60;99.90
41939;DHT22;23057;48.554;14.454;2022-09-09T01:39:35;8.70;99.90
41939;DHT22;23057;48.554;14.454;2022-09-09T01:42:09;8.80;99.90
41939;DHT22;23057;48.554;14.454;2022-09-09T01:44:45;8.90;99.90
41939;DHT22;23057;48.554;14.454;2022-09-09T01:47:16;8.90;99.90
41939;DHT22;23057;48.554;14.454;2022-09-09T01:49:47;8.90;99.90
41939;DHT22;23057;48.554;14.454;2022-09-09T01:52:18;9.00;99.90
41939;DHT22;23057;48.554;14.454;2022-09-09T01:54:49;8.90;99.90
41939;DHT22;23057;48.554;14.454;2022-09-09T01:57:24;8.90;99.90
41939;DHT22;23057;48.554;14.454;2022-09-09T02:00:07;8.90;99.90
41939;DHT22;23057;48.554;14.454;2022-09-09T02:05:30;8.70;99.90
41939;DHT22;23057;48.554;14.454;2022-09-09T02:08:23;8.70;99.90
41939;DHT22;23057;48.554;14.454;2022-09-09T02:11:27;8.60;99.90
41939;DHT22;23057;48.554;14.454;2022-09-09T02:14:01;8.60;99.90
41939;DHT22;23057;48.554;14.454;2022-09-09T02:19:21;8.70;99.90
41939;DHT22;23057;48.554;14.454;2022-09-09T02:22:01;8.60;99.90
41939;DHT22;23057;48.554;14.454;2022-09-09T02:24:33;8.70;99.90
41939;DHT22;23057;48.554;14.454;2022-09-09T02:27:07;8.80;99.90
41939;DHT22;23057;48.554;14.454;2022-09-09T02:29:40;8.90;99.90
41939;DHT22;23057;48.554;14.454;2022-09-09T02:32:15;8.90;99.90
41939;DHT22;23057;48.554;14.454;2022-09-09T02:34:56;8.90;99.90
41939;DHT22;23057;48.554;14.454;2022-09-09T02:37:37;9.00;99.90
41939;DHT22;23057;48.554;14.454;2022-09-09T02:40:11;9.10;99.90
41939;DHT22;23057;48.554;14.454;2022-09-09T02:42:46;8.90;99.90
41939;DHT22;23057;48.554;14.454;2022-09-09T02:45:20;8.70;99.90
41939;DHT22;23057;48.554;14.454;2022-09-09T02:51:14;8.40;99.90
41939;DHT22;23057;48.554;14.454;2022-09-09T02:53:52;8.40;99.90
41939;DHT22;23057;48.554;14.454;2022-09-09T02:56:53;8.30;99.90
41939;DHT22;23057;48.554;14.454;2022-09-09T02:59:26;8.20;99.90
41939;DHT22;23057;48.554;14.454;2022-09-09T03:01:57;8.30;99.90
41939;DHT22;23057;48.554;14.454;2022-09-09T03:04:28;8.30;99.90
41939;DHT22;23057;48.554;14.454;2022-09-09T03:07:01;8.40;99.90
41939;DHT22;23057;48.554;14.454;2022-09-09T03:09:33;8.50;99.90
41939;DHT22;23057;48.554;14.454;2022-09-09T03:12:04;8.50;99.90
41939;DHT22;23057;48.554;14.454;2022-09-09T03:14:35;8.60;99.90
41939;DHT22;23057;48.554;14.454;2022-09-09T03:17:06;8.60;99.90
41939;DHT22;23057;48.554;14.454;2022-09-09T03:19:37;8.60;99.90
41939;DHT22;23057;48.554;14.454;2022-09-09T03:22:09;8.70;99.90
41939;DHT22;23057;48.554;14.454;2022-09-09T03:24:41;8.80;99.90
41939;DHT22;23057;48.554;14.454;2022-09-09T03:27:12;8.80;99.90
41939;DHT22;23057;48.554;14.454;2022-09-09T03:29:44;8.70;99.90
41939;DHT22;23057;48.554;14.454;2022-09-09T03:32:17;8.60;99.90
41939;DHT22;23057;48.554;14.454;2022-09-09T03:34:52;8.60;99.90
41939;DHT22;23057;48.554;14.454;2022-09-09T03:37:23;8.50;99.90
41939;DHT22;23057;48.554;14.454;2022-09-09T03:39:54;8.40;99.90
41939;DHT22;23057;48.554;14.454;2022-09-09T03:42:25;8.40;99.90
41939;DHT22;23057;48.554;14.454;2022-09-09T03:44:55;8.40;99.90
41939;DHT22;23057;48.554;14.454;2022-09-09T03:47:28;8.30;99.90
41939;DHT22;23057;48.554;14.454;2022-09-09T03:49:59;8.30;99.90
41939;DHT22;23057;48.554;14.454;2022-09-09T03:52:30;8.30;99.90
41939;DHT22;23057;48.554;14.454;2022-09-09T03:55:00;8.20;99.90
41939;DHT22;23057;48.554;14.454;2022-09-09T03:57:31;8.00;99.90
41939;DHT22;23057;48.554;14.454;2022-09-09T04:00:06;8.00;99.90
41939;DHT22;23057;48.554;14.454;2022-09-09T04:02:39;8.00;99.90
41939;DHT22;23057;48.554;14.454;2022-09-09T04:05:09;8.00;99.90
41939;DHT22;23057;48.554;14.454;2022-09-09T04:07:40;8.10;99.90
41939;DHT22;23057;48.554;14.454;2022-09-09T04:10:11;8.30;99.90
41939;DHT22;23057;48.554;14.454;2022-09-09T04:12:42;8.50;99.90
41939;DHT22;23057;48.554;14.454;2022-09-09T04:15:12;8.60;99.90
41939;DHT22;23057;48.554;14.454;2022-09-09T04:17:43;8.70;99.90
41939;DHT22;23057;48.554;14.454;2022-09-09T04:20:14;8.90;99.90
41939;DHT22;23057;48.554;14.454;2022-09-09T04:22:45;9.00;99.90
41939;DHT22;23057;48.554;14.454;2022-09-09T04:25:16;9.10;99.90
41939;DHT22;23057;48.554;14.454;2022-09-09T04:27:46;9.10;99.90
41939;DHT22;23057;48.554;14.454;2022-09-09T04:30:17;9.10;99.90
41939;DHT22;23057;48.554;14.454;2022-09-09T04:32:48;9.20;99.90
41939;DHT22;23057;48.554;14.454;2022-09-09T04:35:19;9.10;99.90
41939;DHT22;23057;48.554;14.454;2022-09-09T04:37:50;9.10;99.90
41939;DHT22;23057;48.554;14.454;2022-09-09T04:40:21;9.20;99.90
41939;DHT22;23057;48.554;14.454;2022-09-09T04:42:52;9.20;99.90
41939;DHT22;23057;48.554;14.454;2022-09-09T04:45:23;9.20;99.90
41939;DHT22;23057;48.554;14.454;2022-09-09T04:47:53;9.30;99.90
41939;DHT22;23057;48.554;14.454;2022-09-09T04:50:25;9.50;99.90
41939;DHT22;23057;48.554;14.454;2022-09-09T04:52:56;10.00;99.90
41939;DHT22;23057;48.554;14.454;2022-09-09T04:55:29;11.00;99.90
41939;DHT22;23057;48.554;14.454;2022-09-09T04:58:04;12.00;99.90
41939;DHT22;23057;48.554;14.454;2022-09-09T05:00:37;13.00;99.90
41939;DHT22;23057;48.554;14.454;2022-09-09T05:03:08;13.50;99.90
41939;DHT22;23057;48.554;14.454;2022-09-09T05:05:39;14.50;99.90
41939;DHT22;23057;48.554;14.454;2022-09-09T05:08:10;15.50;99.90
41939;DHT22;23057;48.554;14.454;2022-09-09T05:10:41;16.00;99.90
41939;DHT22;23057;48.554;14.454;2022-09-09T05:13:12;16.80;99.90
41939;DHT22;23057;48.554;14.454;2022-09-09T05:15:50;16.80;20.30
41939;DHT22;23057;48.554;14.454;2022-09-09T05:18:23;16.90;1.00
41939;DHT22;23057;48.554;14.454;2022-09-09T05:20:58;17.40;99.90
41939;DHT22;23057;48.554;14.454;2022-09-09T05:23:30;17.70;99.90
41939;DHT22;23057;48.554;14.454;2022-09-09T05:26:01;18.40;45.40
41939;DHT22;23057;48.554;14.454;2022-09-09T05:28:36;18.00;1.00
41939;DHT22;23057;48.554;14.454;2022-09-09T05:31:08;16.90;77.30
41939;DHT22;23057;48.554;14.454;2022-09-09T05:33:43;15.70;99.90
41939;DHT22;23057;48.554;14.454;2022-09-09T05:36:17;14.30;1.00
41939;DHT22;23057;48.554;14.454;2022-09-09T05:38:51;14.20;94.30
41939;DHT22;23057;48.554;14.454;2022-09-09T05:41:23;15.00;1.00
41939;DHT22;23057;48.554;14.454;2022-09-09T05:43:54;15.10;99.90
41939;DHT22;23057;48.554;14.454;2022-09-09T05:46:25;14.50;1.00
41939;DHT22;23057;48.554;14.454;2022-09-09T05:48:56;14.50;99.90
41939;DHT22;23057;48.554;14.454;2022-09-09T05:51:28;16.20;99.90
41939;DHT22;23057;48.554;14.454;2022-09-09T05:54:02;18.20;99.10
41939;DHT22;23057;48.554;14.454;2022-09-09T05:56:33;17.70;99.90
41939;DHT22;23057;48.554;14.454;2022-09-09T05:59:04;16.10;99.90
41939;DHT22;23057;48.554;14.454;2022-09-09T06:01:36;14.90;14.40
41939;DHT22;23057;48.554;14.454;2022-09-09T06:04:10;15.90;99.90
41939;DHT22;23057;48.554;14.454;2022-09-09T06:06:41;15.50;1.00
41939;DHT22;23057;48.554;14.454;2022-09-09T06:09:12;14.60;99.90
41939;DHT22;23057;48.554;14.454;2022-09-09T06:11:43;14.40;99.90
41939;DHT22;23057;48.554;14.454;2022-09-09T06:14:15;13.90;1.00
41939;DHT22;23057;48.554;14.454;2022-09-09T06:16:48;14.40;99.90
41939;DHT22;23057;48.554;14.454;2022-09-09T06:19:19;15.10;99.90
41939;DHT22;23057;48.554;14.454;2022-09-09T06:21:50;15.80;99.90
41939;DHT22;23057;48.554;14.454;2022-09-09T06:24:21;17.20;99.90
41939;DHT22;23057;48.554;14.454;2022-09-09T06:26:52;18.90;99.90
41939;DHT22;23057;48.554;14.454;2022-09-09T06:29:24;20.70;21.20
41939;DHT22;23057;48.554;14.454;2022-09-09T06:31:55;21.20;1.00
41939;DHT22;23057;48.554;14.454;2022-09-09T06:34:26;21.40;1.00
41939;DHT22;23057;48.554;14.454;2022-09-09T06:36:57;21.20;1.00
41939;DHT22;23057;48.554;14.454;2022-09-09T06:39:28;20.80;1.00
41939;DHT22;23057;48.554;14.454;2022-09-09T06:41:59;20.60;53.70
41939;DHT22;23057;48.554;14.454;2022-09-09T06:44:30;20.10;99.90
41939;DHT22;23057;48.554;14.454;2022-09-09T06:47:02;18.80;99.90
41939;DHT22;23057;48.554;14.454;2022-09-09T06:49:33;17.50;1.00
41939;DHT22;23057;48.554;14.454;2022-09-09T06:52:05;16.90;99.90
41939;DHT22;23057;48.554;14.454;2022-09-09T06:54:36;16.40;99.90
41939;DHT22;23057;48.554;14.454;2022-09-09T06:57:07;15.90;60.80
41939;DHT22;23057;48.554;14.454;2022-09-09T06:59:38;15.70;99.90
41939;DHT22;23057;48.554;14.454;2022-09-09T07:02:09;15.50;1.00
41939;DHT22;23057;48.554;14.454;2022-09-09T07:04:40;15.50;90.60
41939;DHT22;23057;48.554;14.454;2022-09-09T07:07:10;15.30;99.90
41939;DHT22;23057;48.554;14.454;2022-09-09T07:09:43;15.10;99.90
41939;DHT22;23057;48.554;14.454;2022-09-09T07:12:15;15.20;99.90
41939;DHT22;23057;48.554;14.454;2022-09-09T07:14:46;15.10;99.90
41939;DHT22;23057;48.554;14.454;2022-09-09T07:17:17;15.00;99.90
41939;DHT22;23057;48.554;14.454;2022-09-09T07:19:48;14.90;99.90
41939;DHT22;23057;48.554;14.454;2022-09-09T07:22:18;14.90;99.90
41939;DHT22;23057;48.554;14.454;2022-09-09T07:24:50;14.90;99.90
41939;DHT22;23057;48.554;14.454;2022-09-09T07:27:21;14.90;99.90
41939;DHT22;23057;48.554;14.454;2022-09-09T07:29:51;14.90;99.90
41939;DHT22;23057;48.554;14.454;2022-09-09T07:32:24;14.90;99.90
41939;DHT22;23057;48.554;14.454;2022-09-09T07:35:00;14.90;99.90
41939;DHT22;23057;48.554;14.454;2022-09-09T07:37:31;14.90;99.90
41939;DHT22;23057;48.554;14.454;2022-09-09T07:40:02;14.80;99.90
41939;DHT22;23057;48.554;14.454;2022-09-09T07:42:34;14.80;99.90
41939;DHT22;23057;48.554;14.454;2022-09-09T07:45:06;14.90;99.90
41939;DHT22;23057;48.554;14.454;2022-09-09T07:47:37;15.00;99.90
41939;DHT22;23057;48.554;14.454;2022-09-09T07:50:08;15.10;99.90
41939;DHT22;23057;48.554;14.454;2022-09-09T07:52:40;15.20;99.90
41939;DHT22;23057;48.554;14.454;2022-09-09T07:55:11;15.30;99.90
41939;DHT22;23057;48.554;14.454;2022-09-09T07:57:42;15.40;99.90
41939;DHT22;23057;48.554;14.454;2022-09-09T08:00:13;15.40;99.90
41939;DHT22;23057;48.554;14.454;2022-09-09T08:02:45;15.30;99.90
41939;DHT22;23057;48.554;14.454;2022-09-09T08:05:16;15.40;99.90
41939;DHT22;23057;48.554;14.454;2022-09-09T08:07:48;15.40;99.90
41939;DHT22;23057;48.554;14.454;2022-09-09T08:10:19;15.30;99.90
41939;DHT22;23057;48.554;14.454;2022-09-09T08:12:49;15.30;99.90
41939;DHT22;23057;48.554;14.454;2022-09-09T08:15:20;15.40;99.90
41939;DHT22;23057;48.554;14.454;2022-09-09T08:17:51;15.50;99.90
41939;DHT22;23057;48.554;14.454;2022-09-09T08:20:22;15.50;99.90
41939;DHT22;23057;48.554;14.454;2022-09-09T08:22:54;15.50;99.90
41939;DHT22;23057;48.554;14.454;2022-09-09T08:25:26;15.50;99.90
41939;DHT22;23057;48.554;14.454;2022-09-09T08:27:56;15.60;99.90
41939;DHT22;23057;48.554;14.454;2022-09-09T08:30:27;15.70;99.90
41939;DHT22;23057;48.554;14.454;2022-09-09T08:32:58;15.80;99.90
41939;DHT22;23057;48.554;14.454;2022-09-09T08:35:30;15.90;99.90
41939;DHT22;23057;48.554;14.454;2022-09-09T08:38:02;16.00;99.90
41939;DHT22;23057;48.554;14.454;2022-09-09T08:40:33;16.00;99.90
41939;DHT22;23057;48.554;14.454;2022-09-09T08:43:19;16.10;99.90
41939;DHT22;23057;48.554;14.454;2022-09-09T08:46:00;16.10;99.90
41939;DHT22;23057;48.554;14.454;2022-09-09T08:48:47;16.10;99.90
41939;DHT22;23057;48.554;14.454;2022-09-09T08:51:27;16.20;99.90
41939;DHT22;23057;48.554;14.454;2022-09-09T08:54:03;16.30;99.90
41939;DHT22;23057;48.554;14.454;2022-09-09T08:56:35;16.20;99.90
41939;DHT22;23057;48.554;14.454;2022-09-09T08:59:07;16.30;99.90
41939;DHT22;23057;48.554;14.454;2022-09-09T09:02:01;16.40;99.90
41939;DHT22;23057;48.554;14.454;2022-09-09T09:04:50;16.40;99.90
41939;DHT22;23057;48.554;14.454;2022-09-09T09:07:41;16.40;99.90
41939;DHT22;23057;48.554;14.454;2022-09-09T09:16:13;16.60;99.90
41939;DHT22;23057;48.554;14.454;2022-09-09T09:18:59;16.70;99.90
41939;DHT22;23057;48.554;14.454;2022-09-09T09:21:35;16.90;99.90
41939;DHT22;23057;48.554;14.454;2022-09-09T09:24:16;17.10;99.90
41939;DHT22;23057;48.554;14.454;2022-09-09T09:26:53;17.40;99.90
41939;DHT22;23057;48.554;14.454;2022-09-09T09:29:24;17.60;75.60
41939;DHT22;23057;48.554;14.454;2022-09-09T09:31:57;17.60;1.00
41939;DHT22;23057;48.554;14.454;2022-09-09T09:34:33;17.70;99.90
41939;DHT22;23057;48.554;14.454;2022-09-09T09:37:17;17.90;99.90
41939;DHT22;23057;48.554;14.454;2022-09-09T09:40:15;17.90;1.00
41939;DHT22;23057;48.554;14.454;2022-09-09T09:45:42;18.00;99.90
41939;DHT22;23057;48.554;14.454;2022-09-09T09:48:18;17.90;99.90
41939;DHT22;23057;48.554;14.454;2022-09-09T09:50:53;17.80;1.00
41939;DHT22;23057;48.554;14.454;2022-09-09T09:53:31;17.60;99.90
41939;DHT22;23057;48.554;14.454;2022-09-09T09:56:13;17.40;6.90
41939;DHT22;23057;48.554;14.454;2022-09-09T10:01:20;17.50;99.90
41939;DHT22;23057;48.554;14.454;2022-09-09T10:04:15;17.30;15.80
41939;DHT22;23057;48.554;14.454;2022-09-09T10:06:50;17.00;1.00
41939;DHT22;23057;48.554;14.454;2022-09-09T10:09:23;17.00;99.90
41939;DHT22;23057;48.554;14.454;2022-09-09T10:17:59;16.70;99.90
41939;DHT22;23057;48.554;14.454;2022-09-09T10:30:17;16.10;99.90
41939;DHT22;23057;48.554;14.454;2022-09-09T10:35:53;15.70;99.90
41939;DHT22;23057;48.554;14.454;2022-09-09T10:38:39;15.60;99.90
41939;DHT22;23057;48.554;14.454;2022-09-09T10:48:00;15.50;99.90
41939;DHT22;23057;48.554;14.454;2022-09-09T10:57:40;15.60;99.90
41939;DHT22;23057;48.554;14.454;2022-09-09T11:03:04;15.60;99.90
41939;DHT22;23057;48.554;14.454;2022-09-09T11:05:44;15.60;99.90
41939;DHT22;23057;48.554;14.454;2022-09-09T11:08:26;15.70;99.90
41939;DHT22;23057;48.554;14.454;2022-09-09T11:11:09;15.70;99.90
41939;DHT22;23057;48.554;14.454;2022-09-09T11:16:24;15.70;99.90
41939;DHT22;23057;48.554;14.454;2022-09-09T11:19:11;15.80;99.90
41939;DHT22;23057;48.554;14.454;2022-09-09T11:21:55;15.90;99.90
41939;DHT22;23057;48.554;14.454;2022-09-09T11:24:34;16.00;99.90
41939;DHT22;23057;48.554;14.454;2022-09-09T11:27:15;16.00;99.90
41939;DHT22;23057;48.554;14.454;2022-09-09T11:30:37;16.00;99.90
41939;DHT22;23057;48.554;14.454;2022-09-09T11:33:39;16.10;99.90
41939;DHT22;23057;48.554;14.454;2022-09-09T11:36:35;16.00;99.90
41939;DHT22;23057;48.554;14.454;2022-09-09T11:42:07;15.80;99.90
41939;DHT22;23057;48.554;14.454;2022-09-09T11:44:44;15.70;99.90
41939;DHT22;23057;48.554;14.454;2022-09-09T11:47:26;15.70;99.90
41939;DHT22;23057;48.554;14.454;2022-09-09T11:50:42;15.80;99.90
41939;DHT22;23057;48.554;14.454;2022-09-09T11:56:07;15.90;99.90
41939;DHT22;23057;48.554;14.454;2022-09-09T11:58:53;16.10;99.90
41939;DHT22;23057;48.554;14.454;2022-09-09T12:01:41;16.20;99.90
41939;DHT22;23057;48.554;14.454;2022-09-09T12:07:38;16.50;99.90
41939;DHT22;23057;48.554;14.454;2022-09-09T12:10:30;16.70;99.90
41939;DHT22;23057;48.554;14.454;2022-09-09T12:13:17;16.80;99.90
41939;DHT22;23057;48.554;14.454;2022-09-09T12:15:56;16.90;99.90
41939;DHT22;23057;48.554;14.454;2022-09-09T12:23:50;17.00;99.90
41939;DHT22;23057;48.554;14.454;2022-09-09T12:26:47;16.80;99.90
41939;DHT22;23057;48.554;14.454;2022-09-09T12:29:40;16.90;99.90
41939;DHT22;23057;48.554;14.454;2022-09-09T12:32:25;16.70;99.90
41939;DHT22;23057;48.554;14.454;2022-09-09T12:35:03;16.80;99.90
41939;DHT22;23057;48.554;14.454;2022-09-09T12:37:56;16.90;99.90
41939;DHT22;23057;48.554;14.454;2022-09-09T12:40:33;16.80;99.90
41939;DHT22;23057;48.554;14.454;2022-09-09T12:43:18;16.80;99.90
41939;DHT22;23057;48.554;14.454;2022-09-09T12:45:54;16.80;99.90
41939;DHT22;23057;48.554;14.454;2022-09-09T12:48:35;16.80;99.90
41939;DHT22;23057;48.554;14.454;2022-09-09T12:51:18;16.90;99.90
41939;DHT22;23057;48.554;14.454;2022-09-09T12:53:56;17.00;99.90
41939;DHT22;23057;48.554;14.454;2022-09-09T12:56:30;17.00;98.80
41939;DHT22;23057;48.554;14.454;2022-09-09T12:59:03;16.90;99.90
41939;DHT22;23057;48.554;14.454;2022-09-09T13:01:34;16.80;99.90
41939;DHT22;23057;48.554;14.454;2022-09-09T13:04:17;16.70;99.90
41939;DHT22;23057;48.554;14.454;2022-09-09T13:06:52;16.80;99.90
41939;DHT22;23057;48.554;14.454;2022-09-09T13:09:23;16.90;99.90
41939;DHT22;23057;48.554;14.454;2022-09-09T13:11:54;17.00;99.90
41939;DHT22;23057;48.554;14.454;2022-09-09T13:14:29;17.00;99.90
41939;DHT22;23057;48.554;14.454;2022-09-09T13:17:17;16.80;99.90
41939;DHT22;23057;48.554;14.454;2022-09-09T13:20:00;16.90;99.90
41939;DHT22;23057;48.554;14.454;2022-09-09T13:22:36;16.90;99.90
41939;DHT22;23057;48.554;14.454;2022-09-09T13:27:50;17.10;6.90
41939;DHT22;23057;48.554;14.454;2022-09-09T13:30:27;17.00;1.00
41939;DHT22;23057;48.554;14.454;2022-09-09T13:35:52;16.50;1.00
41939;DHT22;23057;48.554;14.454;2022-09-09T13:38:28;16.40;99.90
41939;DHT22;23057;48.554;14.454;2022-09-09T13:41:04;16.20;99.90
41939;DHT22;23057;48.554;14.454;2022-09-09T13:43:38;16.30;99.90
41939;DHT22;23057;48.554;14.454;2022-09-09T13:51:41;16.50;99.90
41939;DHT22;23057;48.554;14.454;2022-09-09T13:54:17;16.30;99.90
41939;DHT22;23057;48.554;14.454;2022-09-09T13:56:50;16.30;99.90
41939;DHT22;23057;48.554;14.454;2022-09-09T13:59:21;16.50;1.10
41939;DHT22;23057;48.554;14.454;2022-09-09T14:01:51;16.50;99.90
41939;DHT22;23057;48.554;14.454;2022-09-09T14:04:22;16.50;99.90
41939;DHT22;23057;48.554;14.454;2022-09-09T14:06:54;16.40;99.90
41939;DHT22;23057;48.554;14.454;2022-09-09T14:09:25;16.40;99.90
41939;DHT22;23057;48.554;14.454;2022-09-09T14:11:56;16.40;99.90
41939;DHT22;23057;48.554;14.454;2022-09-09T14:14:27;16.50;1.00
41939;DHT22;23057;48.554;14.454;2022-09-09T14:16:58;16.50;99.90
41939;DHT22;23057;48.554;14.454;2022-09-09T14:19:29;16.50;99.90
41939;DHT22;23057;48.554;14.454;2022-09-09T14:22:01;16.40;1.00
41939;DHT22;23057;48.554;14.454;2022-09-09T14:24:32;16.40;1.00
41939;DHT22;23057;48.554;14.454;2022-09-09T14:27:03;16.30;1.00
41939;DHT22;23057;48.554;14.454;2022-09-09T14:29:34;16.30;99.90
41939;DHT22;23057;48.554;14.454;2022-09-09T14:32:04;16.30;99.90
41939;DHT22;23057;48.554;14.454;2022-09-09T14:34:35;16.20;99.90
41939;DHT22;23057;48.554;14.454;2022-09-09T14:37:06;16.20;99.90
41939;DHT22;23057;48.554;14.454;2022-09-09T14:39:37;16.20;99.90
41939;DHT22;23057;48.554;14.454;2022-09-09T14:42:07;16.20;99.90
41939;DHT22;23057;48.554;14.454;2022-09-09T14:44:39;16.20;99.90
41939;DHT22;23057;48.554;14.454;2022-09-09T14:47:10;16.30;99.90
41939;DHT22;23057;48.554;14.454;2022-09-09T14:49:41;16.20;99.90
41939;DHT22;23057;48.554;14.454;2022-09-09T14:52:12;16.20;99.90
41939;DHT22;23057;48.554;14.454;2022-09-09T14:54:43;16.20;99.90
41939;DHT22;23057;48.554;14.454;2022-09-09T14:57:14;16.10;99.90
41939;DHT22;23057;48.554;14.454;2022-09-09T14:59:45;16.00;99.90
41939;DHT22;23057;48.554;14.454;2022-09-09T15:02:15;16.10;99.90
41939;DHT22;23057;48.554;14.454;2022-09-09T15:04:46;15.90;99.90
41939;DHT22;23057;48.554;14.454;2022-09-09T15:07:17;15.90;99.90
41939;DHT22;23057;48.554;14.454;2022-09-09T15:09:49;16.00;99.90
41939;DHT22;23057;48.554;14.454;2022-09-09T15:12:20;16.00;99.90
41939;DHT22;23057;48.554;14.454;2022-09-09T15:14:51;16.00;99.90
41939;DHT22;23057;48.554;14.454;2022-09-09T15:17:23;16.00;99.90
41939;DHT22;23057;48.554;14.454;2022-09-09T15:19:56;15.80;99.90
41939;DHT22;23057;48.554;14.454;2022-09-09T15:22:27;15.70;99.90
41939;DHT22;23057;48.554;14.454;2022-09-09T15:24:58;15.60;99.90
41939;DHT22;23057;48.554;14.454;2022-09-09T15:27:28;15.30;99.90
41939;DHT22;23057;48.554;14.454;2022-09-09T15:30:00;15.10;99.90
41939;DHT22;23057;48.554;14.454;2022-09-09T15:32:31;15.10;99.90
41939;DHT22;23057;48.554;14.454;2022-09-09T15:35:03;15.20;99.90
41939;DHT22;23057;48.554;14.454;2022-09-09T15:37:34;15.30;99.90
41939;DHT22;23057;48.554;14.454;2022-09-09T15:40:04;15.40;99.90
41939;DHT22;23057;48.554;14.454;2022-09-09T15:42:36;15.50;99.90
41939;DHT22;23057;48.554;14.454;2022-09-09T15:45:07;15.50;99.90
41939;DHT22;23057;48.554;14.454;2022-09-09T15:47:39;15.50;99.90
41939;DHT22;23057;48.554;14.454;2022-09-09T15:50:10;15.50;99.90
41939;DHT22;23057;48.554;14.454;2022-09-09T15:52:40;15.40;99.90
41939;DHT22;23057;48.554;14.454;2022-09-09T15:55:11;15.40;99.90
41939;DHT22;23057;48.554;14.454;2022-09-09T15:57:42;15.30;99.90
41939;DHT22;23057;48.554;14.454;2022-09-09T16:00:13;15.30;99.90
41939;DHT22;23057;48.554;14.454;2022-09-09T16:02:44;15.20;99.90
41939;DHT22;23057;48.554;14.454;2022-09-09T16:05:17;15.20;99.90
41939;DHT22;23057;48.554;14.454;2022-09-09T16:07:47;15.10;99.90
41939;DHT22;23057;48.554;14.454;2022-09-09T16:10:18;15.00;99.90
41939;DHT22;23057;48.554;14.454;2022-09-09T16:12:49;14.70;99.90
41939;DHT22;23057;48.554;14.454;2022-09-09T16:15:20;14.50;99.90
41939;DHT22;23057;48.554;14.454;2022-09-09T16:17:53;14.50;99.90
41939;DHT22;23057;48.554;14.454;2022-09-09T16:20:24;14.40;99.90
41939;DHT22;23057;48.554;14.454;2022-09-09T16:22:55;14.40;99.90
41939;DHT22;23057;48.554;14.454;2022-09-09T16:25:27;14.40;99.90
41939;DHT22;23057;48.554;14.454;2022-09-09T16:27:58;14.40;99.90
41939;DHT22;23057;48.554;14.454;2022-09-09T16:30:29;14.50;99.90
41939;DHT22;23057;48.554;14.454;2022-09-09T16:33:00;14.50;99.90
41939;DHT22;23057;48.554;14.454;2022-09-09T16:35:30;14.40;99.90
41939;DHT22;23057;48.554;14.454;2022-09-09T16:38:01;14.40;99.90
41939;DHT22;23057;48.554;14.454;2022-09-09T16:40:38;14.30;99.90
41939;DHT22;23057;48.554;14.454;2022-09-09T16:43:11;14.30;99.90
41939;DHT22;23057;48.554;14.454;2022-09-09T16:45:43;14.30;99.90
41939;DHT22;23057;48.554;14.454;2022-09-09T16:48:15;14.30;99.90
41939;DHT22;23057;48.554;14.454;2022-09-09T16:50:46;14.30;99.90
41939;DHT22;23057;48.554;14.454;2022-09-09T16:53:16;14.30;99.90
41939;DHT22;23057;48.554;14.454;2022-09-09T16:55:47;14.30;99.90
41939;DHT22;23057;48.554;14.454;2022-09-09T16:58:18;14.30;99.90
41939;DHT22;23057;48.554;14.454;2022-09-09T17:00:48;14.30;99.90
41939;DHT22;23057;48.554;14.454;2022-09-09T17:03:21;14.20;99.90
41939;DHT22;23057;48.554;14.454;2022-09-09T17:05:52;14.20;99.90
41939;DHT22;23057;48.554;14.454;2022-09-09T17:08:23;14.20;99.90
41939;DHT22;23057;48.554;14.454;2022-09-09T17:10:54;14.20;99.90
41939;DHT22;23057;48.554;14.454;2022-09-09T17:13:26;14.10;99.90
41939;DHT22;23057;48.554;14.454;2022-09-09T17:15:57;14.00;99.90
41939;DHT22;23057;48.554;14.454;2022-09-09T17:18:28;14.00;99.90
41939;DHT22;23057;48.554;14.454;2022-09-09T17:21:02;14.00;99.90
41939;DHT22;23057;48.554;14.454;2022-09-09T17:23:42;14.00;99.90
41939;DHT22;23057;48.554;14.454;2022-09-09T17:26:14;14.00;99.90
41939;DHT22;23057;48.554;14.454;2022-09-09T17:28:55;14.00;99.90
41939;DHT22;23057;48.554;14.454;2022-09-09T17:31:28;14.00;99.90
41939;DHT22;23057;48.554;14.454;2022-09-09T17:34:00;14.00;99.90
41939;DHT22;23057;48.554;14.454;2022-09-09T17:36:32;14.00;99.90
41939;DHT22;23057;48.554;14.454;2022-09-09T17:39:04;14.00;99.90
41939;DHT22;23057;48.554;14.454;2022-09-09T17:41:37;14.00;99.90
41939;DHT22;23057;48.554;14.454;2022-09-09T17:44:09;13.90;99.90
41939;DHT22;23057;48.554;14.454;2022-09-09T17:46:42;13.90;99.90
41939;DHT22;23057;48.554;14.454;2022-09-09T17:49:16;13.80;99.90
41939;DHT22;23057;48.554;14.454;2022-09-09T17:51:47;13.80;99.90
41939;DHT22;23057;48.554;14.454;2022-09-09T17:54:19;13.90;99.90
41939;DHT22;23057;48.554;14.454;2022-09-09T17:56:50;13.90;99.90
41939;DHT22;23057;48.554;14.454;2022-09-09T17:59:22;13.90;99.90
41939;DHT22;23057;48.554;14.454;2022-09-09T18:01:54;14.00;99.90
41939;DHT22;23057;48.554;14.454;2022-09-09T18:04:25;14.00;99.90
41939;DHT22;23057;48.554;14.454;2022-09-09T18:06:55;14.00;99.90